sensor_id;sensor_type;location;lat;lon;timestamp;P1;durP1;ratioP1;P2;durP2;ratioP2
11328;SDS011;5719;42.714;23.732;2022-12-18T00:00:57;45.80;;;23.17;;
11328;SDS011;5719;42.714;23.732;2022-12-18T00:03:24;36.47;;;20.35;;
11328;SDS011;5719;42.714;23.732;2022-12-18T00:05:53;40.53;;;20.42;;
11328;SDS011;5719;42.714;23.732;2022-12-18T00:08:20;40.22;;;21.80;;
11328;SDS011;5719;42.714;23.732;2022-12-18T00:10:46;44.67;;;22.20;;
11328;SDS011;5719;42.714;23.732;2022-12-18T00:13:13;42.90;;;21.00;;
11328;SDS011;5719;42.714;23.732;2022-12-18T00:15:40;41.13;;;20.33;;
11328;SDS011;5719;42.714;23.732;2022-12-18T00:18:07;32.33;;;19.27;;
11328;SDS011;5719;42.714;23.732;2022-12-18T00:20:38;38.45;;;19.98;;
11328;SDS011;5719;42.714;23.732;2022-12-18T00:23:07;38.17;;;20.70;;
11328;SDS011;5719;42.714;23.732;2022-12-18T00:25:34;41.35;;;21.65;;
11328;SDS011;5719;42.714;23.732;2022-12-18T00:28:02;37.13;;;20.25;;
11328;SDS011;5719;42.714;23.732;2022-12-18T00:30:29;31.75;;;17.83;;
11328;SDS011;5719;42.714;23.732;2022-12-18T00:32:57;30.05;;;18.92;;
11328;SDS011;5719;42.714;23.732;2022-12-18T00:35:24;27.60;;;16.90;;
11328;SDS011;5719;42.714;23.732;2022-12-18T00:37:51;26.55;;;15.95;;
11328;SDS011;5719;42.714;23.732;2022-12-18T00:40:19;26.70;;;16.48;;
11328;SDS011;5719;42.714;23.732;2022-12-18T00:42:46;29.45;;;16.92;;
11328;SDS011;5719;42.714;23.732;2022-12-18T00:45:21;25.52;;;16.67;;
11328;SDS011;5719;42.714;23.732;2022-12-18T00:47:48;25.15;;;17.23;;
11328;SDS011;5719;42.714;23.732;2022-12-18T00:50:15;29.42;;;17.17;;
11328;SDS011;5719;42.714;23.732;2022-12-18T00:52:42;32.22;;;16.52;;
11328;SDS011;5719;42.714;23.732;2022-12-18T00:55:09;26.02;;;16.77;;
11328;SDS011;5719;42.714;23.732;2022-12-18T00:57:38;30.15;;;18.38;;
11328;SDS011;5719;42.714;23.732;2022-12-18T01:00:06;26.25;;;16.23;;
11328;SDS011;5719;42.714;23.732;2022-12-18T01:02:35;31.13;;;17.58;;
11328;SDS011;5719;42.714;23.732;2022-12-18T01:05:02;32.20;;;17.92;;
11328;SDS011;5719;42.714;23.732;2022-12-18T01:07:29;29.77;;;17.38;;
11328;SDS011;5719;42.714;23.732;2022-12-18T01:09:56;33.10;;;18.15;;
11328;SDS011;5719;42.714;23.732;2022-12-18T01:12:23;30.55;;;16.58;;
11328;SDS011;5719;42.714;23.732;2022-12-18T01:14:51;26.40;;;16.60;;
11328;SDS011;5719;42.714;23.732;2022-12-18T01:17:18;28.45;;;18.00;;
11328;SDS011;5719;42.714;23.732;2022-12-18T01:19:45;30.80;;;16.48;;
11328;SDS011;5719;42.714;23.732;2022-12-18T01:22:12;27.25;;;15.57;;
11328;SDS011;5719;42.714;23.732;2022-12-18T01:24:39;30.30;;;15.82;;
11328;SDS011;5719;42.714;23.732;2022-12-18T01:27:05;32.00;;;16.70;;
11328;SDS011;5719;42.714;23.732;2022-12-18T01:29:32;33.83;;;17.98;;
11328;SDS011;5719;42.714;23.732;2022-12-18T01:32:01;30.00;;;16.77;;
11328;SDS011;5719;42.714;23.732;2022-12-18T01:34:27;34.05;;;17.40;;
11328;SDS011;5719;42.714;23.732;2022-12-18T01:36:54;32.13;;;16.60;;
11328;SDS011;5719;42.714;23.732;2022-12-18T01:39:21;27.48;;;16.08;;
11328;SDS011;5719;42.714;23.732;2022-12-18T01:41:48;31.33;;;17.15;;
11328;SDS011;5719;42.714;23.732;2022-12-18T01:47:26;28.08;;;16.42;;
11328;SDS011;5719;42.714;23.732;2022-12-18T01:49:57;29.85;;;16.45;;
11328;SDS011;5719;42.714;23.732;2022-12-18T01:52:26;29.85;;;17.33;;
11328;SDS011;5719;42.714;23.732;2022-12-18T01:54:56;31.60;;;16.55;;
11328;SDS011;5719;42.714;23.732;2022-12-18T01:57:23;26.35;;;16.33;;
11328;SDS011;5719;42.714;23.732;2022-12-18T01:59:52;33.08;;;16.63;;
11328;SDS011;5719;42.714;23.732;2022-12-18T02:02:22;27.90;;;17.20;;
11328;SDS011;5719;42.714;23.732;2022-12-18T02:04:50;31.90;;;17.38;;
11328;SDS011;5719;42.714;23.732;2022-12-18T02:07:20;30.75;;;17.02;;
11328;SDS011;5719;42.714;23.732;2022-12-18T02:09:55;35.92;;;17.83;;
11328;SDS011;5719;42.714;23.732;2022-12-18T02:12:27;33.17;;;17.58;;
11328;SDS011;5719;42.714;23.732;2022-12-18T02:15:02;35.88;;;17.05;;
11328;SDS011;5719;42.714;23.732;2022-12-18T02:17:36;35.20;;;18.60;;
11328;SDS011;5719;42.714;23.732;2022-12-18T02:20:11;30.25;;;16.88;;
11328;SDS011;5719;42.714;23.732;2022-12-18T02:22:45;44.97;;;19.85;;
11328;SDS011;5719;42.714;23.732;2022-12-18T02:25:25;36.40;;;18.52;;
11328;SDS011;5719;42.714;23.732;2022-12-18T02:28:06;34.35;;;18.02;;
11328;SDS011;5719;42.714;23.732;2022-12-18T02:30:39;29.20;;;16.92;;
11328;SDS011;5719;42.714;23.732;2022-12-18T02:33:08;33.60;;;17.48;;
11328;SDS011;5719;42.714;23.732;2022-12-18T02:35:38;26.65;;;16.63;;
11328;SDS011;5719;42.714;23.732;2022-12-18T02:38:08;33.85;;;17.75;;
11328;SDS011;5719;42.714;23.732;2022-12-18T02:40:35;30.83;;;17.27;;
11328;SDS011;5719;42.714;23.732;2022-12-18T02:43:08;30.42;;;18.05;;
11328;SDS011;5719;42.714;23.732;2022-12-18T02:45:36;33.47;;;17.52;;
11328;SDS011;5719;42.714;23.732;2022-12-18T02:48:12;34.45;;;18.27;;
11328;SDS011;5719;42.714;23.732;2022-12-18T02:53:31;33.47;;;17.52;;
11328;SDS011;5719;42.714;23.732;2022-12-18T02:56:04;36.80;;;18.40;;
11328;SDS011;5719;42.714;23.732;2022-12-18T02:58:37;33.13;;;17.15;;
11328;SDS011;5719;42.714;23.732;2022-12-18T03:01:13;30.55;;;17.10;;
11328;SDS011;5719;42.714;23.732;2022-12-18T03:06:17;30.50;;;16.92;;
11328;SDS011;5719;42.714;23.732;2022-12-18T03:08:51;30.67;;;17.65;;
11328;SDS011;5719;42.714;23.732;2022-12-18T03:11:23;31.50;;;16.75;;
11328;SDS011;5719;42.714;23.732;2022-12-18T03:14:07;26.73;;;15.73;;
11328;SDS011;5719;42.714;23.732;2022-12-18T03:16:36;31.33;;;16.52;;
11328;SDS011;5719;42.714;23.732;2022-12-18T03:19:04;29.27;;;16.52;;
11328;SDS011;5719;42.714;23.732;2022-12-18T03:21:37;33.25;;;16.15;;
11328;SDS011;5719;42.714;23.732;2022-12-18T03:26:36;28.48;;;16.38;;
11328;SDS011;5719;42.714;23.732;2022-12-18T03:29:08;33.97;;;16.48;;
11328;SDS011;5719;42.714;23.732;2022-12-18T03:35:02;26.17;;;15.65;;
11328;SDS011;5719;42.714;23.732;2022-12-18T03:37:31;30.02;;;16.45;;
11328;SDS011;5719;42.714;23.732;2022-12-18T03:39:58;30.40;;;17.52;;
11328;SDS011;5719;42.714;23.732;2022-12-18T03:42:27;33.47;;;17.38;;
11328;SDS011;5719;42.714;23.732;2022-12-18T03:45:02;29.58;;;16.92;;
11328;SDS011;5719;42.714;23.732;2022-12-18T03:47:36;29.58;;;17.05;;
11328;SDS011;5719;42.714;23.732;2022-12-18T03:50:10;34.20;;;16.98;;
11328;SDS011;5719;42.714;23.732;2022-12-18T03:52:41;32.53;;;17.88;;
11328;SDS011;5719;42.714;23.732;2022-12-18T03:55:13;32.03;;;17.52;;
11328;SDS011;5719;42.714;23.732;2022-12-18T03:57:41;37.28;;;19.02;;
11328;SDS011;5719;42.714;23.732;2022-12-18T04:00:11;33.17;;;18.15;;
11328;SDS011;5719;42.714;23.732;2022-12-18T04:02:43;38.13;;;18.98;;
11328;SDS011;5719;42.714;23.732;2022-12-18T04:05:12;35.70;;;18.33;;
11328;SDS011;5719;42.714;23.732;2022-12-18T04:07:40;35.28;;;18.92;;
11328;SDS011;5719;42.714;23.732;2022-12-18T04:10:09;31.73;;;18.00;;
11328;SDS011;5719;42.714;23.732;2022-12-18T04:12:38;33.03;;;17.70;;
11328;SDS011;5719;42.714;23.732;2022-12-18T04:15:05;32.75;;;16.85;;
11328;SDS011;5719;42.714;23.732;2022-12-18T04:17:35;26.52;;;15.48;;
11328;SDS011;5719;42.714;23.732;2022-12-18T04:20:02;30.13;;;17.38;;
11328;SDS011;5719;42.714;23.732;2022-12-18T04:22:30;34.53;;;18.25;;
11328;SDS011;5719;42.714;23.732;2022-12-18T04:24:57;31.02;;;17.35;;
11328;SDS011;5719;42.714;23.732;2022-12-18T04:27:23;36.60;;;18.83;;
11328;SDS011;5719;42.714;23.732;2022-12-18T04:29:50;33.95;;;16.70;;
11328;SDS011;5719;42.714;23.732;2022-12-18T04:32:17;36.28;;;17.17;;
11328;SDS011;5719;42.714;23.732;2022-12-18T04:34:45;35.67;;;17.38;;
11328;SDS011;5719;42.714;23.732;2022-12-18T04:37:12;31.67;;;16.75;;
11328;SDS011;5719;42.714;23.732;2022-12-18T04:39:39;35.13;;;16.80;;
11328;SDS011;5719;42.714;23.732;2022-12-18T04:42:06;32.25;;;16.75;;
11328;SDS011;5719;42.714;23.732;2022-12-18T04:44:33;36.80;;;20.23;;
11328;SDS011;5719;42.714;23.732;2022-12-18T04:47:00;34.10;;;17.35;;
11328;SDS011;5719;42.714;23.732;2022-12-18T04:49:27;34.80;;;16.15;;
11328;SDS011;5719;42.714;23.732;2022-12-18T04:51:55;30.70;;;16.08;;
11328;SDS011;5719;42.714;23.732;2022-12-18T04:54:22;26.02;;;15.90;;
11328;SDS011;5719;42.714;23.732;2022-12-18T04:56:49;31.38;;;17.08;;
11328;SDS011;5719;42.714;23.732;2022-12-18T04:59:16;29.27;;;17.05;;
11328;SDS011;5719;42.714;23.732;2022-12-18T05:01:43;31.10;;;17.48;;
11328;SDS011;5719;42.714;23.732;2022-12-18T05:04:10;29.35;;;16.75;;
11328;SDS011;5719;42.714;23.732;2022-12-18T05:06:37;30.38;;;16.58;;
11328;SDS011;5719;42.714;23.732;2022-12-18T05:09:05;33.55;;;17.45;;
11328;SDS011;5719;42.714;23.732;2022-12-18T05:11:32;35.85;;;16.35;;
11328;SDS011;5719;42.714;23.732;2022-12-18T05:14:02;38.28;;;19.50;;
11328;SDS011;5719;42.714;23.732;2022-12-18T05:16:29;31.30;;;17.90;;
11328;SDS011;5719;42.714;23.732;2022-12-18T05:18:56;40.40;;;21.95;;
11328;SDS011;5719;42.714;23.732;2022-12-18T05:21:23;49.97;;;23.20;;
11328;SDS011;5719;42.714;23.732;2022-12-18T05:23:49;44.95;;;21.13;;
11328;SDS011;5719;42.714;23.732;2022-12-18T05:26:18;44.85;;;22.02;;
11328;SDS011;5719;42.714;23.732;2022-12-18T05:28:45;48.05;;;23.20;;
11328;SDS011;5719;42.714;23.732;2022-12-18T05:31:12;42.65;;;22.42;;
11328;SDS011;5719;42.714;23.732;2022-12-18T05:33:39;42.58;;;20.10;;
11328;SDS011;5719;42.714;23.732;2022-12-18T05:36:07;37.85;;;20.55;;
11328;SDS011;5719;42.714;23.732;2022-12-18T05:38:36;38.97;;;20.48;;
11328;SDS011;5719;42.714;23.732;2022-12-18T05:41:05;41.75;;;21.05;;
11328;SDS011;5719;42.714;23.732;2022-12-18T05:43:35;43.55;;;21.38;;
11328;SDS011;5719;42.714;23.732;2022-12-18T05:46:03;47.08;;;22.45;;
11328;SDS011;5719;42.714;23.732;2022-12-18T05:48:31;42.08;;;20.80;;
11328;SDS011;5719;42.714;23.732;2022-12-18T05:51:02;40.05;;;20.85;;
11328;SDS011;5719;42.714;23.732;2022-12-18T05:53:30;43.25;;;21.23;;
11328;SDS011;5719;42.714;23.732;2022-12-18T05:55:59;35.63;;;19.17;;
11328;SDS011;5719;42.714;23.732;2022-12-18T05:58:27;43.05;;;19.35;;
11328;SDS011;5719;42.714;23.732;2022-12-18T06:00:56;39.60;;;20.35;;
11328;SDS011;5719;42.714;23.732;2022-12-18T06:03:23;42.22;;;21.13;;
11328;SDS011;5719;42.714;23.732;2022-12-18T06:05:50;34.65;;;18.83;;
11328;SDS011;5719;42.714;23.732;2022-12-18T06:08:17;42.65;;;19.38;;
11328;SDS011;5719;42.714;23.732;2022-12-18T06:10:49;46.28;;;20.90;;
11328;SDS011;5719;42.714;23.732;2022-12-18T06:13:17;40.25;;;20.55;;
11328;SDS011;5719;42.714;23.732;2022-12-18T06:15:44;43.65;;;22.42;;
11328;SDS011;5719;42.714;23.732;2022-12-18T06:18:13;46.63;;;21.60;;
11328;SDS011;5719;42.714;23.732;2022-12-18T06:20:40;39.85;;;20.48;;
11328;SDS011;5719;42.714;23.732;2022-12-18T06:23:07;43.72;;;20.77;;
11328;SDS011;5719;42.714;23.732;2022-12-18T06:25:36;44.70;;;22.65;;
11328;SDS011;5719;42.714;23.732;2022-12-18T06:31:26;49.08;;;21.05;;
11328;SDS011;5719;42.714;23.732;2022-12-18T06:33:54;47.58;;;22.83;;
11328;SDS011;5719;42.714;23.732;2022-12-18T06:36:21;46.55;;;22.58;;
11328;SDS011;5719;42.714;23.732;2022-12-18T06:38:48;42.38;;;22.83;;
11328;SDS011;5719;42.714;23.732;2022-12-18T06:41:16;41.83;;;20.88;;
11328;SDS011;5719;42.714;23.732;2022-12-18T06:43:44;43.97;;;23.58;;
11328;SDS011;5719;42.714;23.732;2022-12-18T06:46:12;40.42;;;21.83;;
11328;SDS011;5719;42.714;23.732;2022-12-18T06:48:39;35.60;;;20.33;;
11328;SDS011;5719;42.714;23.732;2022-12-18T06:51:07;49.97;;;23.20;;
11328;SDS011;5719;42.714;23.732;2022-12-18T06:53:34;39.92;;;19.83;;
11328;SDS011;5719;42.714;23.732;2022-12-18T06:56:01;37.50;;;20.50;;
11328;SDS011;5719;42.714;23.732;2022-12-18T06:58:30;40.67;;;20.27;;
11328;SDS011;5719;42.714;23.732;2022-12-18T07:01:00;41.00;;;20.75;;
11328;SDS011;5719;42.714;23.732;2022-12-18T07:03:27;36.08;;;19.55;;
11328;SDS011;5719;42.714;23.732;2022-12-18T07:05:55;43.83;;;21.13;;
11328;SDS011;5719;42.714;23.732;2022-12-18T07:08:23;39.83;;;20.73;;
11328;SDS011;5719;42.714;23.732;2022-12-18T07:10:50;40.78;;;20.98;;
11328;SDS011;5719;42.714;23.732;2022-12-18T07:13:18;40.13;;;20.50;;
11328;SDS011;5719;42.714;23.732;2022-12-18T07:15:45;37.92;;;19.88;;
11328;SDS011;5719;42.714;23.732;2022-12-18T07:18:11;46.20;;;23.23;;
11328;SDS011;5719;42.714;23.732;2022-12-18T07:20:38;52.05;;;24.77;;
11328;SDS011;5719;42.714;23.732;2022-12-18T07:23:05;56.72;;;27.75;;
11328;SDS011;5719;42.714;23.732;2022-12-18T07:25:34;61.90;;;29.85;;
11328;SDS011;5719;42.714;23.732;2022-12-18T07:28:01;81.38;;;38.08;;
11328;SDS011;5719;42.714;23.732;2022-12-18T07:30:29;95.90;;;42.08;;
11328;SDS011;5719;42.714;23.732;2022-12-18T07:32:56;85.70;;;42.85;;
11328;SDS011;5719;42.714;23.732;2022-12-18T07:35:23;49.83;;;27.05;;
11328;SDS011;5719;42.714;23.732;2022-12-18T07:37:50;51.47;;;25.48;;
11328;SDS011;5719;42.714;23.732;2022-12-18T07:40:17;44.50;;;22.23;;
11328;SDS011;5719;42.714;23.732;2022-12-18T07:42:46;58.53;;;29.33;;
11328;SDS011;5719;42.714;23.732;2022-12-18T07:45:12;50.83;;;27.27;;
11328;SDS011;5719;42.714;23.732;2022-12-18T07:47:39;47.08;;;24.98;;
11328;SDS011;5719;42.714;23.732;2022-12-18T07:50:07;47.05;;;24.73;;
11328;SDS011;5719;42.714;23.732;2022-12-18T07:52:34;47.08;;;24.35;;
11328;SDS011;5719;42.714;23.732;2022-12-18T07:55:01;40.30;;;21.98;;
11328;SDS011;5719;42.714;23.732;2022-12-18T07:57:29;47.15;;;24.17;;
11328;SDS011;5719;42.714;23.732;2022-12-18T07:59:57;51.00;;;25.73;;
11328;SDS011;5719;42.714;23.732;2022-12-18T08:02:24;51.47;;;26.90;;
11328;SDS011;5719;42.714;23.732;2022-12-18T08:04:51;45.40;;;23.95;;
11328;SDS011;5719;42.714;23.732;2022-12-18T08:10:39;49.90;;;24.42;;
11328;SDS011;5719;42.714;23.732;2022-12-18T08:13:06;41.70;;;22.23;;
11328;SDS011;5719;42.714;23.732;2022-12-18T08:15:34;42.53;;;21.98;;
11328;SDS011;5719;42.714;23.732;2022-12-18T08:18:01;37.67;;;21.13;;
11328;SDS011;5719;42.714;23.732;2022-12-18T08:20:28;42.67;;;22.45;;
11328;SDS011;5719;42.714;23.732;2022-12-18T08:22:55;42.38;;;21.75;;
11328;SDS011;5719;42.714;23.732;2022-12-18T08:25:23;52.53;;;26.48;;
11328;SDS011;5719;42.714;23.732;2022-12-18T08:27:50;44.92;;;23.45;;
11328;SDS011;5719;42.714;23.732;2022-12-18T08:30:17;44.00;;;21.65;;
11328;SDS011;5719;42.714;23.732;2022-12-18T08:32:45;45.75;;;21.70;;
11328;SDS011;5719;42.714;23.732;2022-12-18T08:35:14;41.65;;;21.48;;
11328;SDS011;5719;42.714;23.732;2022-12-18T08:37:41;49.08;;;24.48;;
11328;SDS011;5719;42.714;23.732;2022-12-18T08:40:08;46.88;;;24.98;;
11328;SDS011;5719;42.714;23.732;2022-12-18T08:42:36;51.00;;;24.20;;
11328;SDS011;5719;42.714;23.732;2022-12-18T08:45:20;46.53;;;23.60;;
11328;SDS011;5719;42.714;23.732;2022-12-18T08:47:48;50.65;;;25.67;;
11328;SDS011;5719;42.714;23.732;2022-12-18T08:50:15;51.65;;;26.27;;
11328;SDS011;5719;42.714;23.732;2022-12-18T08:52:42;55.50;;;26.88;;
11328;SDS011;5719;42.714;23.732;2022-12-18T08:55:09;49.67;;;23.33;;
11328;SDS011;5719;42.714;23.732;2022-12-18T08:57:36;51.03;;;25.02;;
11328;SDS011;5719;42.714;23.732;2022-12-18T09:00:03;55.83;;;25.63;;
11328;SDS011;5719;42.714;23.732;2022-12-18T09:02:31;51.70;;;26.67;;
11328;SDS011;5719;42.714;23.732;2022-12-18T09:04:59;52.78;;;25.95;;
11328;SDS011;5719;42.714;23.732;2022-12-18T09:07:26;49.85;;;23.15;;
11328;SDS011;5719;42.714;23.732;2022-12-18T09:09:53;44.28;;;23.75;;
11328;SDS011;5719;42.714;23.732;2022-12-18T09:12:20;44.03;;;22.20;;
11328;SDS011;5719;42.714;23.732;2022-12-18T09:14:47;48.15;;;25.67;;
11328;SDS011;5719;42.714;23.732;2022-12-18T09:17:14;38.75;;;21.58;;
11328;SDS011;5719;42.714;23.732;2022-12-18T09:19:41;41.03;;;21.30;;
11328;SDS011;5719;42.714;23.732;2022-12-18T09:22:10;50.65;;;24.02;;
11328;SDS011;5719;42.714;23.732;2022-12-18T09:24:37;54.15;;;26.52;;
11328;SDS011;5719;42.714;23.732;2022-12-18T09:27:04;55.03;;;27.02;;
11328;SDS011;5719;42.714;23.732;2022-12-18T09:29:32;55.95;;;25.27;;
11328;SDS011;5719;42.714;23.732;2022-12-18T09:31:59;49.65;;;25.45;;
11328;SDS011;5719;42.714;23.732;2022-12-18T09:34:26;48.13;;;23.10;;
11328;SDS011;5719;42.714;23.732;2022-12-18T09:36:53;49.95;;;24.15;;
11328;SDS011;5719;42.714;23.732;2022-12-18T09:39:22;59.00;;;25.17;;
11328;SDS011;5719;42.714;23.732;2022-12-18T09:41:50;59.22;;;27.63;;
11328;SDS011;5719;42.714;23.732;2022-12-18T09:44:23;49.28;;;25.38;;
11328;SDS011;5719;42.714;23.732;2022-12-18T09:46:54;56.03;;;27.83;;
11328;SDS011;5719;42.714;23.732;2022-12-18T09:49:38;58.95;;;24.83;;
11328;SDS011;5719;42.714;23.732;2022-12-18T09:52:12;44.75;;;23.42;;
11328;SDS011;5719;42.714;23.732;2022-12-18T09:54:46;41.75;;;22.95;;
11328;SDS011;5719;42.714;23.732;2022-12-18T09:57:17;56.60;;;25.88;;
11328;SDS011;5719;42.714;23.732;2022-12-18T09:59:48;50.28;;;23.85;;
11328;SDS011;5719;42.714;23.732;2022-12-18T10:02:19;46.65;;;23.65;;
11328;SDS011;5719;42.714;23.732;2022-12-18T10:04:52;47.75;;;24.42;;
11328;SDS011;5719;42.714;23.732;2022-12-18T10:07:33;45.95;;;22.90;;
11328;SDS011;5719;42.714;23.732;2022-12-18T10:10:11;49.40;;;23.05;;
11328;SDS011;5719;42.714;23.732;2022-12-18T10:12:49;45.72;;;23.92;;
11328;SDS011;5719;42.714;23.732;2022-12-18T10:15:27;46.47;;;22.13;;
11328;SDS011;5719;42.714;23.732;2022-12-18T10:18:02;46.22;;;22.73;;
11328;SDS011;5719;42.714;23.732;2022-12-18T10:20:44;44.10;;;21.52;;
11328;SDS011;5719;42.714;23.732;2022-12-18T10:23:17;47.20;;;21.70;;
11328;SDS011;5719;42.714;23.732;2022-12-18T10:25:53;39.35;;;20.45;;
11328;SDS011;5719;42.714;23.732;2022-12-18T10:28:22;42.73;;;21.77;;
11328;SDS011;5719;42.714;23.732;2022-12-18T10:30:50;44.15;;;20.83;;
11328;SDS011;5719;42.714;23.732;2022-12-18T10:33:18;52.47;;;24.50;;
11328;SDS011;5719;42.714;23.732;2022-12-18T10:35:47;55.78;;;27.10;;
11328;SDS011;5719;42.714;23.732;2022-12-18T10:38:23;44.40;;;23.08;;
11328;SDS011;5719;42.714;23.732;2022-12-18T10:40:54;45.75;;;21.95;;
11328;SDS011;5719;42.714;23.732;2022-12-18T10:43:25;46.15;;;24.70;;
11328;SDS011;5719;42.714;23.732;2022-12-18T10:45:58;43.88;;;24.50;;
11328;SDS011;5719;42.714;23.732;2022-12-18T10:48:32;45.63;;;23.67;;
11328;SDS011;5719;42.714;23.732;2022-12-18T10:51:01;38.88;;;20.65;;
11328;SDS011;5719;42.714;23.732;2022-12-18T10:53:30;39.60;;;20.20;;
11328;SDS011;5719;42.714;23.732;2022-12-18T10:56:00;45.05;;;23.63;;
11328;SDS011;5719;42.714;23.732;2022-12-18T10:58:31;39.83;;;20.95;;
11328;SDS011;5719;42.714;23.732;2022-12-18T11:01:01;48.83;;;23.80;;
11328;SDS011;5719;42.714;23.732;2022-12-18T11:03:35;43.80;;;22.38;;
11328;SDS011;5719;42.714;23.732;2022-12-18T11:06:04;46.45;;;22.95;;
11328;SDS011;5719;42.714;23.732;2022-12-18T11:08:35;46.65;;;23.23;;
11328;SDS011;5719;42.714;23.732;2022-12-18T11:11:09;44.30;;;22.80;;
11328;SDS011;5719;42.714;23.732;2022-12-18T11:13:49;49.58;;;25.20;;
11328;SDS011;5719;42.714;23.732;2022-12-18T11:16:25;47.65;;;23.58;;
11328;SDS011;5719;42.714;23.732;2022-12-18T11:18:53;41.97;;;21.55;;
11328;SDS011;5719;42.714;23.732;2022-12-18T11:21:38;46.42;;;23.13;;
11328;SDS011;5719;42.714;23.732;2022-12-18T11:24:13;48.35;;;24.08;;
11328;SDS011;5719;42.714;23.732;2022-12-18T11:26:48;44.72;;;22.50;;
11328;SDS011;5719;42.714;23.732;2022-12-18T11:29:16;45.33;;;23.17;;
11328;SDS011;5719;42.714;23.732;2022-12-18T11:31:44;42.30;;;21.90;;
11328;SDS011;5719;42.714;23.732;2022-12-18T11:34:12;41.42;;;22.35;;
11328;SDS011;5719;42.714;23.732;2022-12-18T11:36:46;43.95;;;23.38;;
11328;SDS011;5719;42.714;23.732;2022-12-18T11:39:16;46.17;;;21.98;;
11328;SDS011;5719;42.714;23.732;2022-12-18T11:41:48;46.35;;;21.65;;
11328;SDS011;5719;42.714;23.732;2022-12-18T11:44:42;44.50;;;22.25;;
11328;SDS011;5719;42.714;23.732;2022-12-18T11:47:16;47.70;;;23.02;;
11328;SDS011;5719;42.714;23.732;2022-12-18T11:49:51;43.08;;;22.00;;
11328;SDS011;5719;42.714;23.732;2022-12-18T11:52:22;52.58;;;22.50;;
11328;SDS011;5719;42.714;23.732;2022-12-18T11:54:53;51.33;;;24.38;;
11328;SDS011;5719;42.714;23.732;2022-12-18T11:57:28;46.97;;;23.52;;
11328;SDS011;5719;42.714;23.732;2022-12-18T12:00:03;41.70;;;20.60;;
11328;SDS011;5719;42.714;23.732;2022-12-18T12:02:41;38.50;;;19.92;;
11328;SDS011;5719;42.714;23.732;2022-12-18T12:05:32;39.10;;;21.70;;
11328;SDS011;5719;42.714;23.732;2022-12-18T12:08:12;42.10;;;20.80;;
11328;SDS011;5719;42.714;23.732;2022-12-18T12:10:51;37.67;;;20.58;;
11328;SDS011;5719;42.714;23.732;2022-12-18T12:13:26;41.45;;;21.10;;
11328;SDS011;5719;42.714;23.732;2022-12-18T12:16:04;41.10;;;20.63;;
11328;SDS011;5719;42.714;23.732;2022-12-18T12:18:47;39.90;;;21.83;;
11328;SDS011;5719;42.714;23.732;2022-12-18T12:21:22;38.35;;;21.13;;
11328;SDS011;5719;42.714;23.732;2022-12-18T12:33:15;43.10;;;21.45;;
11328;SDS011;5719;42.714;23.732;2022-12-18T12:35:55;45.08;;;23.90;;
11328;SDS011;5719;42.714;23.732;2022-12-18T12:38:30;38.00;;;21.40;;
11328;SDS011;5719;42.714;23.732;2022-12-18T12:41:03;40.45;;;21.20;;
11328;SDS011;5719;42.714;23.732;2022-12-18T12:43:53;44.55;;;20.45;;
11328;SDS011;5719;42.714;23.732;2022-12-18T12:46:23;38.03;;;18.95;;
11328;SDS011;5719;42.714;23.732;2022-12-18T12:48:53;36.78;;;18.75;;
11328;SDS011;5719;42.714;23.732;2022-12-18T12:51:25;37.03;;;20.05;;
11328;SDS011;5719;42.714;23.732;2022-12-18T12:53:55;44.42;;;20.23;;
11328;SDS011;5719;42.714;23.732;2022-12-18T12:56:24;37.67;;;20.63;;
11328;SDS011;5719;42.714;23.732;2022-12-18T12:58:59;38.58;;;20.73;;
11328;SDS011;5719;42.714;23.732;2022-12-18T13:01:33;40.22;;;23.33;;
11328;SDS011;5719;42.714;23.732;2022-12-18T13:04:12;39.05;;;21.45;;
11328;SDS011;5719;42.714;23.732;2022-12-18T13:06:49;37.95;;;20.48;;
11328;SDS011;5719;42.714;23.732;2022-12-18T13:09:20;39.47;;;20.15;;
11328;SDS011;5719;42.714;23.732;2022-12-18T13:11:47;36.78;;;19.35;;
11328;SDS011;5719;42.714;23.732;2022-12-18T13:14:32;40.30;;;19.98;;
11328;SDS011;5719;42.714;23.732;2022-12-18T13:17:21;40.28;;;21.52;;
11328;SDS011;5719;42.714;23.732;2022-12-18T13:22:40;36.15;;;20.52;;
11328;SDS011;5719;42.714;23.732;2022-12-18T13:30:46;47.67;;;21.55;;
11328;SDS011;5719;42.714;23.732;2022-12-18T13:33:37;44.22;;;21.38;;
11328;SDS011;5719;42.714;23.732;2022-12-18T13:36:12;43.70;;;20.75;;
11328;SDS011;5719;42.714;23.732;2022-12-18T13:48:18;40.33;;;20.48;;
11328;SDS011;5719;42.714;23.732;2022-12-18T13:50:52;38.33;;;20.17;;
11328;SDS011;5719;42.714;23.732;2022-12-18T13:53:23;36.20;;;18.50;;
11328;SDS011;5719;42.714;23.732;2022-12-18T13:55:53;32.67;;;17.42;;
11328;SDS011;5719;42.714;23.732;2022-12-18T13:58:20;36.15;;;19.40;;
11328;SDS011;5719;42.714;23.732;2022-12-18T14:00:47;32.90;;;18.35;;
11328;SDS011;5719;42.714;23.732;2022-12-18T14:03:21;35.20;;;19.08;;
11328;SDS011;5719;42.714;23.732;2022-12-18T14:05:54;37.20;;;19.42;;
11328;SDS011;5719;42.714;23.732;2022-12-18T14:08:27;43.50;;;20.90;;
11328;SDS011;5719;42.714;23.732;2022-12-18T14:10:59;36.38;;;18.73;;
11328;SDS011;5719;42.714;23.732;2022-12-18T14:13:28;32.97;;;17.60;;
11328;SDS011;5719;42.714;23.732;2022-12-18T14:15:57;34.63;;;19.17;;
11328;SDS011;5719;42.714;23.732;2022-12-18T14:18:29;40.80;;;20.85;;
11328;SDS011;5719;42.714;23.732;2022-12-18T14:21:01;37.00;;;19.65;;
11328;SDS011;5719;42.714;23.732;2022-12-18T14:23:32;39.08;;;20.38;;
11328;SDS011;5719;42.714;23.732;2022-12-18T14:26:01;42.25;;;19.88;;
11328;SDS011;5719;42.714;23.732;2022-12-18T14:28:28;48.05;;;21.42;;
11328;SDS011;5719;42.714;23.732;2022-12-18T14:30:56;58.72;;;26.58;;
11328;SDS011;5719;42.714;23.732;2022-12-18T14:33:23;67.57;;;27.13;;
11328;SDS011;5719;42.714;23.732;2022-12-18T14:35:53;39.90;;;20.75;;
11328;SDS011;5719;42.714;23.732;2022-12-18T14:38:27;37.90;;;20.75;;
11328;SDS011;5719;42.714;23.732;2022-12-18T14:41:01;41.10;;;20.13;;
11328;SDS011;5719;42.714;23.732;2022-12-18T14:43:31;36.42;;;19.40;;
11328;SDS011;5719;42.714;23.732;2022-12-18T14:46:00;38.63;;;20.67;;
11328;SDS011;5719;42.714;23.732;2022-12-18T14:48:33;38.53;;;20.98;;
11328;SDS011;5719;42.714;23.732;2022-12-18T14:51:04;36.22;;;18.77;;
11328;SDS011;5719;42.714;23.732;2022-12-18T14:53:39;40.05;;;19.23;;
11328;SDS011;5719;42.714;23.732;2022-12-18T14:56:15;39.03;;;19.08;;
11328;SDS011;5719;42.714;23.732;2022-12-18T14:58:45;39.42;;;19.58;;
11328;SDS011;5719;42.714;23.732;2022-12-18T15:01:18;37.97;;;18.90;;
11328;SDS011;5719;42.714;23.732;2022-12-18T15:03:46;37.97;;;18.65;;
11328;SDS011;5719;42.714;23.732;2022-12-18T15:06:17;38.10;;;19.20;;
11328;SDS011;5719;42.714;23.732;2022-12-18T15:08:52;37.88;;;19.08;;
11328;SDS011;5719;42.714;23.732;2022-12-18T15:11:29;33.17;;;18.40;;
11328;SDS011;5719;42.714;23.732;2022-12-18T15:16:50;47.80;;;23.30;;
11328;SDS011;5719;42.714;23.732;2022-12-18T15:19:19;43.10;;;21.65;;
11328;SDS011;5719;42.714;23.732;2022-12-18T15:21:48;43.95;;;23.05;;
11328;SDS011;5719;42.714;23.732;2022-12-18T15:24:16;41.88;;;20.95;;
11328;SDS011;5719;42.714;23.732;2022-12-18T15:26:49;47.60;;;20.60;;
11328;SDS011;5719;42.714;23.732;2022-12-18T15:29:17;43.20;;;20.42;;